Time;durP1;ratioP1;P1;durP2;ratioP2;P2;SDS_P1;SDS_P2;PMS_P1;PMS_P2;Temp;Humidity;BMP_temperature;BMP_pressure;BME280_temperature;BME280_humidity;BME280_pressure;Samples;Min_cycle;Max_cycle;Signal;HPM_P1;HPM_P2
2021/12/06 00:02:00;;;;;;;;;0.25;0.25;;;;;6.36;71.82;100474.31;4994868;28;45391;-54
2021/12/06 00:04:28;;;;;;;;;1.40;1.40;;;;;6.42;72.72;100483.63;4994518;28;45388;-56
2021/12/06 00:07:00;;;;;;;;;1.60;1.60;;;;;6.49;72.42;100503.63;4995074;28;45400;-58
2021/12/06 00:09:26;;;;;;;;;2.00;2.00;;;;;6.33;72.31;100478.28;4996008;28;45360;-54
2021/12/06 00:11:57;;;;;;;;;1.00;1.00;;;;;6.40;71.93;100502.06;4994857;28;45394;-50
2021/12/06 00:14:27;;;;;;;;;2.00;2.00;;;;;6.21;72.35;100460.72;4979578;28;45454;-52
2021/12/06 00:16:54;;;;;;;;;3.00;1.00;;;;;6.51;71.85;100505.13;4995107;28;45472;-58
2021/12/06 00:19:20;;;;;;;;;2.00;2.00;;;;;6.27;72.10;100472.72;4995957;28;45722;-58
2021/12/06 00:21:45;;;;;;;;;5.00;2.50;;;;;6.53;72.13;100521.31;4994865;28;45550;-54
2021/12/06 00:24:11;;;;;;;;;2.00;1.00;;;;;6.48;72.65;100501.94;4995618;28;45287;-51
2021/12/06 00:26:36;;;;;;;;;2.00;2.00;;;;;6.53;72.01;100521.31;4978521;28;45439;-50
2021/12/06 00:29:02;;;;;;;;;4.00;2.00;;;;;5.94;72.52;100425.75;4995566;28;45411;-55
2021/12/06 00:31:31;;;;;;;;;3.25;3.00;;;;;6.48;72.45;100507.38;4995826;28;45324;-51
2021/12/06 00:34:00;;;;;;;;;1.60;1.20;;;;;6.07;72.46;100441.47;4996159;28;45335;-56
2021/12/06 00:36:31;;;;;;;;;4.20;4.00;;;;;6.46;72.77;100521.22;4994356;28;45665;-51
2021/12/06 00:39:00;;;;;;;;;2.80;2.00;;;;;6.42;72.62;100525.38;4994072;28;48562;-56
2021/12/06 00:41:25;;;;;;;;;4.20;3.00;;;;;6.40;72.32;100519.25;4977964;28;45741;-58
2021/12/06 00:43:51;;;;;;;;;2.75;2.00;;;;;6.49;72.20;100534.47;4978123;28;45456;-59
2021/12/06 00:46:18;;;;;;;;;2.75;2.00;;;;;6.48;72.51;100538.25;4966828;28;45537;-54
2021/12/06 00:48:43;;;;;;;;;1.20;1.20;;;;;6.22;72.70;100509.59;4969731;28;46376;-51
2021/12/06 00:51:11;;;;;;;;;2.00;2.00;;;;;6.42;73.02;100539.00;4977606;28;45296;-50
2021/12/06 00:53:37;;;;;;;;;4.40;2.40;;;;;6.41;73.19;100540.00;4994184;28;45440;-52
2021/12/06 00:56:03;;;;;;;;;2.00;2.00;;;;;6.41;73.06;100533.72;4994101;28;45560;-56
2021/12/06 00:58:28;;;;;;;;;2.00;2.00;;;;;6.40;72.69;100534.78;4994315;28;46724;-59
2021/12/06 01:00:54;;;;;;;;;9.50;5.00;;;;;6.41;72.84;100534.56;4961424;28;45475;-59
2021/12/06 01:03:23;;;;;;;;;6.00;5.00;;;;;6.51;73.33;100558.81;4977696;28;45421;-59
2021/12/06 01:05:49;;;;;;;;;2.00;2.00;;;;;6.54;73.13;100563.91;4995709;28;45581;-55
2021/12/06 01:08:15;;;;;;;;;1.50;1.25;;;;;6.54;73.23;100560.31;4995176;28;46013;-55
2021/12/06 01:10:40;;;;;;;;;3.20;3.20;;;;;6.51;73.54;100561.53;4994048;28;45400;-54
2021/12/06 01:13:06;;;;;;;;;6.25;2.00;;;;;6.55;72.59;100572.94;4995613;28;45453;-55
2021/12/06 01:15:32;;;;;;;;;1.25;1.25;;;;;6.43;73.29;100542.56;4994024;28;45699;-53
2021/12/06 01:17:59;;;;;;;;;3.00;2.00;;;;;6.59;73.25;100582.41;4994872;28;46749;-58
2021/12/06 01:20:28;;;;;;;;;4.60;4.40;;;;;6.45;73.16;100559.59;5010277;28;45459;-57
2021/12/06 01:22:59;;;;;;;;;1.40;1.20;;;;;6.56;72.86;100589.09;4978185;28;45526;-55
2021/12/06 01:41:12;;;;;;;;;6.40;5.00;;;;;6.47;74.30;100598.41;4995366;28;46045;-59
2021/12/06 01:43:37;;;;;;;;;3.50;3.50;;;;;6.44;74.07;100605.09;4995651;28;45609;-59
2021/12/06 01:46:02;;;;;;;;;4.00;4.00;;;;;6.47;74.56;100606.59;4993966;28;45445;-58
2021/12/06 01:48:29;;;;;;;;;3.00;3.00;;;;;6.41;74.18;100600.00;4995074;28;46397;-58
2021/12/06 01:50:54;;;;;;;;;5.60;2.40;;;;;6.28;74.41;100578.84;4993448;28;45350;-55
2021/12/06 01:53:20;;;;;;;;;3.50;3.50;;;;;6.50;74.35;100625.28;4995463;28;45346;-53
2021/12/06 01:55:45;;;;;;;;;4.25;4.00;;;;;6.49;74.50;100618.16;4994005;28;45518;-53
2021/12/06 01:58:11;;;;;;;;;2.75;2.00;;;;;6.50;74.99;100625.28;4994907;28;45790;-57
2021/12/06 02:00:50;;;;;;;;;4.50;4.00;;;;;6.54;75.30;100629.34;4995334;28;45357;-51
2021/12/06 02:03:16;;;;;;;;;6.20;5.20;;;;;6.35;75.57;100603.50;4993668;28;45847;-54
2021/12/06 02:05:43;;;;;;;;;5.00;4.75;;;;;6.54;74.94;100639.38;5010666;28;45288;-54
2021/12/06 02:08:08;;;;;;;;;5.80;4.60;;;;;6.53;74.99;100634.97;4995097;28;45832;-57
2021/12/06 02:10:34;;;;;;;;;5.00;4.50;;;;;6.51;74.90;100637.88;4993563;28;45368;-61
2021/12/06 02:13:00;;;;;;;;;6.00;6.00;;;;;6.48;75.42;100639.13;4995177;28;45381;-59
2021/12/06 02:18:45;;;;;;;;;5.20;5.20;;;;;6.29;75.28;100613.25;4982089;28;46060;-58
2021/12/06 02:21:34;;;;;;;;;6.40;6.00;;;;;6.49;75.15;100648.13;4994716;28;45326;-58
2021/12/06 02:24:02;;;;;;;;;10.20;10.20;;;;;6.48;75.79;100641.84;4994778;28;45397;-57
2021/12/06 02:26:27;;;;;;;;;11.40;6.40;;;;;6.40;74.91;100628.28;4994656;28;45586;-55
2021/12/06 02:28:53;;;;;;;;;5.00;4.00;;;;;6.53;74.94;100652.19;4977840;28;46556;-53
2021/12/06 02:31:20;;;;;;;;;5.75;4.00;;;;;6.43;75.60;100632.53;4996352;28;45273;-56
2021/12/06 02:33:48;;;;;;;;;5.20;3.40;;;;;6.01;75.27;100572.13;4997978;28;45374;-57
2021/12/06 02:36:15;;;;;;;;;4.60;3.40;;;;;6.54;75.28;100655.75;4980498;28;45592;-57
2021/12/06 02:38:40;;;;;;;;;4.40;4.40;;;;;6.58;75.50;100651.63;4960448;28;45633;-58
2021/12/06 02:41:08;;;;;;;;;6.50;4.75;;;;;6.55;75.56;100646.56;4975005;28;45757;-55
2021/12/06 02:43:34;;;;;;;;;4.40;3.60;;;;;6.54;75.66;100653.88;4977152;28;45390;-54
2021/12/06 02:45:59;;;;;;;;;5.40;5.40;;;;;6.50;74.96;100642.50;4978145;28;45673;-55
2021/12/06 02:48:25;;;;;;;;;5.25;4.00;;;;;6.52;75.44;100653.22;4976779;28;46330;-53
2021/12/06 02:50:55;;;;;;;;;3.75;3.50;;;;;6.56;75.41;100650.97;4976652;28;45283;-57
2021/12/06 02:53:24;;;;;;;;;4.40;3.60;;;;;6.57;75.61;100648.03;4977794;28;45516;-57
2021/12/06 02:55:53;;;;;;;;;4.60;3.80;;;;;6.60;75.15;100655.88;4978886;28;45301;-54
2021/12/06 03:01:13;;;;;;;;;8.00;6.40;;;;;6.54;75.75;100642.13;4997597;28;45392;-53
2021/12/06 03:03:39;;;;;;;;;5.00;5.00;;;;;6.22;75.05;100579.59;4979791;28;45437;-56
2021/12/06 03:06:05;;;;;;;;;7.25;5.00;;;;;6.69;74.78;100653.03;4997792;28;45617;-54
2021/12/06 03:08:47;;;;;;;;;6.00;6.00;;;;;6.68;74.76;100667.72;4997020;28;46150;-55
2021/12/06 03:11:17;;;;;;;;;4.40;4.00;;;;;6.54;74.86;100648.44;4997191;28;45415;-52
2021/12/06 03:13:43;;;;;;;;;6.00;3.20;;;;;6.69;75.28;100673.00;4996299;28;45301;-59
2021/12/06 03:16:08;;;;;;;;;8.50;5.50;;;;;6.69;75.07;100678.44;4997422;28;45193;-54
2021/12/06 03:18:34;;;;;;;;;2.75;2.00;;;;;6.74;75.56;100683.31;4997195;28;45685;-57
2021/12/06 03:21:00;;;;;;;;;6.00;5.00;;;;;6.20;75.31;100592.56;4997160;28;45229;-56
2021/12/06 03:23:25;;;;;;;;;5.50;2.75;;;;;6.78;74.90;100693.66;4995635;28;45372;-53
2021/12/06 03:25:51;;;;;;;;;5.25;5.25;;;;;6.78;75.20;100692.84;4996083;28;45321;-54
2021/12/06 03:28:16;;;;;;;;;4.50;4.50;;;;;6.81;74.87;100695.19;4995546;28;46068;-52
2021/12/06 03:30:42;;;;;;;;;7.00;5.00;;;;;6.67;75.36;100666.84;4995810;28;45382;-51
2021/12/06 03:33:08;;;;;;;;;6.00;5.00;;;;;6.85;75.35;100693.78;4979624;28;45705;-55
2021/12/06 03:35:33;;;;;;;;;5.00;3.00;;;;;6.86;75.22;100695.47;4997651;28;45402;-55
2021/12/06 03:37:59;;;;;;;;;5.50;5.00;;;;;6.87;74.73;100691.69;4996669;28;46260;-57
2021/12/06 03:40:24;;;;;;;;;6.25;5.00;;;;;6.98;75.02;100697.72;4995088;28;45448;-57
2021/12/06 03:42:50;;;;;;;;;2.75;2.00;;;;;6.72;74.66;100656.22;4995668;28;45428;-60
2021/12/06 03:45:15;;;;;;;;;7.75;6.00;;;;;6.93;75.24;100689.25;4932936;28;45982;-57
2021/12/06 03:47:41;;;;;;;;;4.50;4.50;;;;;6.85;75.65;100691.06;4996834;28;45806;-53
2021/12/06 03:50:07;;;;;;;;;11.25;6.25;;;;;6.82;75.90;100688.69;4996781;28;45436;-52
2021/12/06 03:52:33;;;;;;;;;5.40;4.80;;;;;6.78;75.72;100688.22;5011838;28;45390;-54
2021/12/06 03:54:59;;;;;;;;;4.75;4.75;;;;;6.81;75.79;100700.63;4997213;28;45480;-57
2021/12/06 03:57:25;;;;;;;;;6.25;6.25;;;;;6.76;75.98;100695.75;4996345;28;45974;-55
2021/12/06 03:59:51;;;;;;;;;12.75;6.25;;;;;6.77;76.12;100691.13;4995461;28;45233;-52
2021/12/06 04:02:16;;;;;;;;;5.60;5.00;;;;;6.79;76.40;100702.72;4996830;28;45395;-54
2021/12/06 04:04:42;;;;;;;;;14.50;8.75;;;;;6.78;75.98;100709.22;4995089;28;45436;-60
2021/12/06 04:07:08;;;;;;;;;5.25;5.25;;;;;6.69;75.93;100707.59;4996398;28;46513;-57
2021/12/06 04:09:34;;;;;;;;;8.20;5.20;;;;;6.55;76.27;100690.19;4995185;28;45482;-55
2021/12/06 04:11:59;;;;;;;;;4.75;4.75;;;;;6.74;76.28;100729.69;4996535;28;45449;-54
2021/12/06 04:14:25;;;;;;;;;8.75;6.75;;;;;6.51;76.46;100697.88;4995480;28;45383;-53
2021/12/06 04:16:51;;;;;;;;;10.00;6.75;;;;;6.80;76.74;100742.59;4996289;28;45632;-54
2021/12/06 04:19:17;;;;;;;;;8.00;6.25;;;;;6.76;76.31;100739.41;4994835;28;45438;-57
2021/12/06 04:21:42;;;;;;;;;6.00;5.75;;;;;6.27;76.24;100672.56;4995287;28;45291;-57
2021/12/06 04:24:09;;;;;;;;;7.50;6.00;;;;;6.83;76.10;100744.94;4995169;28;45648;-58
2021/12/06 04:26:35;;;;;;;;;3.80;2.20;;;;;6.51;76.60;100706.91;4978635;28;48256;-56
2021/12/06 04:29:01;;;;;;;;;5.75;5.75;;;;;6.81;76.43;100760.66;4995787;28;45272;-53
2021/12/06 04:31:32;;;;;;;;;6.00;4.80;;;;;6.67;76.22;100740.50;4996074;28;45622;-53
2021/12/06 04:33:58;;;;;;;;;12.80;7.20;;;;;6.82;76.36;100765.06;4996024;28;45343;-56
2021/12/06 04:36:23;;;;;;;;;3.50;3.25;;;;;6.79;76.21;100760.00;4995734;28;46622;-59
2021/12/06 04:38:49;;;;;;;;;5.00;4.00;;;;;6.82;76.15;100756.88;4995647;28;45382;-59
2021/12/06 04:41:15;;;;;;;;;7.75;5.00;;;;;6.84;76.17;100760.25;4994379;28;45407;-56
2021/12/06 04:43:40;;;;;;;;;5.00;5.00;;;;;6.77;76.33;100767.50;4994726;28;45309;-53
2021/12/06 04:46:06;;;;;;;;;6.00;4.50;;;;;6.79;76.21;100762.72;4994422;28;46389;-49
2021/12/06 04:48:31;;;;;;;;;3.75;3.75;;;;;6.60;76.06;100737.69;4995534;28;45264;-60
2021/12/06 04:50:57;;;;;;;;;9.75;8.25;;;;;6.78;76.04;100780.97;4987434;28;45339;-55
2021/12/06 04:53:25;;;;;;;;;6.25;5.00;;;;;6.78;76.49;100791.06;4980962;28;45661;-54
2021/12/06 04:56:10;;;;;;;;;7.00;3.20;;;;;6.82;76.22;100784.16;4991855;28;46727;-57
2021/12/06 04:58:46;;;;;;;;;5.20;4.80;;;;;6.85;76.35;100780.22;4990141;28;45502;-59
2021/12/06 05:01:15;;;;;;;;;4.60;4.60;;;;;6.84;76.41;100795.75;4973900;28;46030;-52
2021/12/06 05:03:41;;;;;;;;;6.40;4.20;;;;;6.29;76.01;100705.09;4958644;28;45834;-55
2021/12/06 05:06:09;;;;;;;;;3.50;3.50;;;;;6.85;76.02;100793.88;4975346;28;46052;-54
2021/12/06 05:08:37;;;;;;;;;5.60;4.60;;;;;6.60;75.93;100754.03;4975507;28;45419;-53
2021/12/06 05:11:03;;;;;;;;;2.40;2.00;;;;;6.41;75.87;100724.56;4975791;28;45309;-55
2021/12/06 05:13:29;;;;;;;;;3.50;3.50;;;;;6.89;75.63;100797.94;4976097;28;45226;-50
2021/12/06 05:15:55;;;;;;;;;4.60;4.20;;;;;6.89;76.17;100804.22;4974122;28;48906;-52
2021/12/06 05:18:21;;;;;;;;;8.00;6.20;;;;;6.90;75.80;100814.09;4975371;28;45222;-54
2021/12/06 05:20:47;;;;;;;;;5.50;2.50;;;;;6.34;75.79;100724.44;4990783;28;45323;-57
2021/12/06 05:23:12;;;;;;;;;5.00;5.00;;;;;6.76;75.68;100793.09;4976127;28;45337;-60
2021/12/06 05:25:38;;;;;;;;;6.00;5.00;;;;;6.80;75.47;100793.56;4975397;28;46067;-58
2021/12/06 05:28:04;;;;;;;;;6.25;4.50;;;;;6.83;75.93;100804.13;4975341;28;45466;-56
2021/12/06 05:30:31;;;;;;;;;2.60;2.60;;;;;6.82;75.19;100803.28;4990558;28;45375;-56
2021/12/06 05:32:59;;;;;;;;;5.60;3.80;;;;;6.83;75.33;100815.03;4975859;28;45442;-57
2021/12/06 05:35:25;;;;;;;;;8.60;5.60;;;;;6.72;75.45;100805.44;4973915;28;48252;-54
2021/12/06 05:37:55;;;;;;;;;6.75;5.00;;;;;6.75;75.25;100825.00;4974396;28;45372;-54
2021/12/06 05:40:29;;;;;;;;;5.40;5.40;;;;;6.73;75.87;100826.22;4974442;28;45523;-58
2021/12/06 05:42:55;;;;;;;;;2.40;2.40;;;;;6.74;75.72;100822.44;4975801;28;45381;-52
2021/12/06 05:45:22;;;;;;;;;5.00;3.25;;;;;6.59;75.57;100806.03;4973705;28;46819;-51
2021/12/06 05:47:47;;;;;;;;;5.00;5.00;;;;;6.74;76.17;100825.19;4975551;28;45521;-53
2021/12/06 05:50:13;;;;;;;;;7.50;5.25;;;;;6.80;75.59;100829.91;4975463;28;45370;-60
2021/12/06 05:52:38;;;;;;;;;6.00;5.00;;;;;6.82;75.91;100833.28;4975540;28;45395;-59
2021/12/06 05:55:04;;;;;;;;;7.25;5.75;;;;;6.61;75.35;100796.66;4974053;28;45738;-55
2021/12/06 05:57:30;;;;;;;;;4.80;4.80;;;;;6.81;75.33;100839.78;4984884;28;45899;-54
2021/12/06 05:59:56;;;;;;;;;4.00;3.25;;;;;6.82;75.56;100833.28;4995215;28;45307;-56
2021/12/06 06:02:22;;;;;;;;;5.50;4.00;;;;;6.86;75.10;100841.94;4994611;28;45335;-53
2021/12/06 06:04:48;;;;;;;;;6.00;5.20;;;;;6.85;74.87;100840.25;4996713;28;47642;-55
2021/12/06 06:07:13;;;;;;;;;7.50;6.50;;;;;6.58;75.36;100797.03;4998175;28;45543;-52
2021/12/06 06:09:39;;;;;;;;;11.75;8.25;;;;;6.84;74.57;100846.75;4997025;28;45471;-56
2021/12/06 06:12:05;;;;;;;;;6.50;6.50;;;;;6.65;74.61;100827.13;4997224;28;45441;-60
2021/12/06 06:14:31;;;;;;;;;6.80;6.80;;;;;6.75;74.48;100845.97;4996740;28;46133;-60
2021/12/06 06:17:07;;;;;;;;;8.60;6.00;;;;;6.74;74.90;100847.00;4980399;28;45590;-57
2021/12/06 06:19:32;;;;;;;;;10.20;7.60;;;;;6.51;74.98;100817.84;4981625;28;45393;-58
2021/12/06 06:21:58;;;;;;;;;5.75;5.50;;;;;6.80;75.46;100865.38;4997160;28;45528;-58
2021/12/06 06:24:23;;;;;;;;;6.25;6.00;;;;;6.79;75.31;100869.13;4997724;28;46116;-60
2021/12/06 06:26:49;;;;;;;;;5.25;5.25;;;;;6.78;75.05;100864.72;4997007;28;45363;-59
2021/12/06 06:29:14;;;;;;;;;10.75;6.75;;;;;6.82;75.35;100874.22;4997662;28;45360;-59
2021/12/06 06:31:40;;;;;;;;;5.00;5.00;;;;;6.83;74.89;100872.34;4996429;28;45636;-54
2021/12/06 06:34:06;;;;;;;;;10.50;9.00;;;;;6.85;75.43;100875.72;4997654;28;45456;-51
2021/12/06 06:36:31;;;;;;;;;9.25;5.25;;;;;6.86;74.62;100874.69;4996242;28;45462;-49
2021/12/06 06:38:57;;;;;;;;;5.75;5.25;;;;;6.86;75.45;100878.28;4997697;28;45375;-54
2021/12/06 06:41:22;;;;;;;;;6.75;6.75;;;;;6.46;75.15;100807.50;4998094;28;45327;-56
2021/12/06 06:43:49;;;;;;;;;7.25;6.00;;;;;6.89;74.22;100877.06;4996411;28;45396;-59
2021/12/06 06:46:14;;;;;;;;;7.40;6.00;;;;;6.84;74.45;100874.84;4997359;28;45497;-59
2021/12/06 06:48:40;;;;;;;;;6.75;5.00;;;;;6.78;74.42;100870.16;4997547;28;45509;-60
2021/12/06 06:51:05;;;;;;;;;7.00;7.00;;;;;6.77;74.96;100872.03;4997705;28;45433;-58
2021/12/06 06:53:31;;;;;;;;;9.75;9.00;;;;;6.79;75.37;100874.59;4996421;28;46193;-56
2021/12/06 06:55:57;;;;;;;;;10.50;9.25;;;;;6.86;74.64;100880.13;4996337;28;45353;-53
2021/12/06 06:58:23;;;;;;;;;9.60;9.60;;;;;6.78;74.77;100875.63;4997110;28;45459;-54
2021/12/06 07:00:48;;;;;;;;;10.75;8.50;;;;;6.71;74.91;100872.75;4996349;28;45377;-57
2021/12/06 07:03:14;;;;;;;;;10.00;9.00;;;;;6.82;74.46;100893.31;4995940;28;46249;-56
2021/12/06 07:05:40;;;;;;;;;6.50;6.50;;;;;6.79;74.51;100901.88;4997262;28;45350;-60
2021/12/06 07:08:05;;;;;;;;;6.00;6.00;;;;;6.85;75.16;100908.47;4997563;28;45291;-53
2021/12/06 07:10:31;;;;;;;;;9.75;6.50;;;;;6.73;74.31;100887.06;4996130;28;45416;-55
2021/12/06 07:12:57;;;;;;;;;10.50;9.75;;;;;6.81;74.47;100910.72;4997100;28;45390;-60
2021/12/06 07:15:28;;;;;;;;;5.00;5.00;;;;;6.62;75.14;100891.06;4994728;28;45369;-58
2021/12/06 07:17:55;;;;;;;;;9.60;8.20;;;;;6.82;74.63;100912.41;4963290;28;45377;-52
2021/12/06 07:20:20;;;;;;;;;9.00;6.80;;;;;6.86;74.40;100927.38;4996940;28;45550;-54
2021/12/06 07:22:51;;;;;;;;;11.00;7.40;;;;;6.61;74.80;100883.94;4995283;28;48794;-54
2021/12/06 07:25:17;;;;;;;;;12.60;9.00;;;;;6.88;74.64;100932.66;4996872;28;45387;-58
2021/12/06 07:27:43;;;;;;;;;9.75;8.00;;;;;6.86;74.40;100923.78;4979571;28;45492;-52
2021/12/06 07:30:09;;;;;;;;;12.50;9.25;;;;;6.86;75.78;100929.25;4995497;28;45391;-50
2021/12/06 07:32:35;;;;;;;;;8.20;6.60;;;;;6.63;74.64;100897.38;4994981;28;47318;-50
2021/12/06 07:35:02;;;;;;;;;9.75;6.00;;;;;6.73;74.59;100925.25;4995332;28;45480;-58
2021/12/06 07:37:27;;;;;;;;;7.00;6.20;;;;;6.84;74.72;100945.81;4996753;28;45412;-59
2021/12/06 07:39:53;;;;;;;;;9.00;7.75;;;;;6.85;74.48;100944.78;4967449;28;45605;-60
2021/12/06 07:42:19;;;;;;;;;9.25;6.75;;;;;6.82;74.40;100939.69;4970528;28;45446;-59
2021/12/06 07:44:45;;;;;;;;;9.75;8.50;;;;;6.82;74.94;100930.66;4975676;28;45375;-57
2021/12/06 07:47:11;;;;;;;;;9.40;9.40;;;;;6.75;74.12;100928.66;4991889;28;45432;-54
2021/12/06 07:49:37;;;;;;;;;13.25;9.75;;;;;6.69;74.21;100917.63;4976021;28;45805;-52
2021/12/06 07:52:06;;;;;;;;;9.00;6.25;;;;;6.58;74.36;100900.66;4975197;28;45650;-54
2021/12/06 07:54:32;;;;;;;;;9.00;8.20;;;;;6.50;73.77;100889.78;4976679;28;45375;-57
2021/12/06 07:56:58;;;;;;;;;13.20;10.40;;;;;6.71;73.94;100929.19;4979321;28;45480;-61
2021/12/06 07:59:23;;;;;;;;;10.00;10.00;;;;;6.81;74.28;100937.13;4979080;28;45597;-61
2021/12/06 08:01:49;;;;;;;;;11.25;9.50;;;;;6.81;74.02;100946.19;4996594;28;45682;-58
2021/12/06 08:04:14;;;;;;;;;10.00;9.00;;;;;6.86;73.92;100946.50;4995324;28;45488;-58
2021/12/06 08:06:40;;;;;;;;;13.50;10.00;;;;;6.87;73.86;100936.41;4994913;28;45536;-59
2021/12/06 08:09:06;;;;;;;;;11.75;10.00;;;;;6.85;73.04;100931.16;4995456;28;45490;-51
2021/12/06 08:11:32;;;;;;;;;5.60;5.60;;;;;6.88;72.56;100935.41;4994950;28;45418;-55
2021/12/06 08:13:58;;;;;;;;;9.25;7.50;;;;;6.90;72.77;100925.13;4996515;28;45411;-50
2021/12/06 08:16:26;;;;;;;;;9.50;8.50;;;;;6.95;72.34;100925.44;4996005;28;45339;-59
2021/12/06 08:18:52;;;;;;;;;10.80;10.80;;;;;7.14;72.16;100926.81;4996348;28;45314;-57
2021/12/06 08:21:19;;;;;;;;;13.50;10.50;;;;;7.30;71.91;100916.75;4994717;28;45389;-61
2021/12/06 08:23:44;;;;;;;;;13.40;8.20;;;;;7.39;71.00;100925.72;4996195;28;45474;-58
2021/12/06 08:26:10;;;;;;;;;9.50;7.00;;;;;7.49;71.26;100922.72;4996302;28;45382;-58
2021/12/06 08:28:36;;;;;;;;;13.25;11.00;;;;;7.48;70.83;100913.69;4995994;28;45376;-56
2021/12/06 08:31:03;;;;;;;;;12.60;11.00;;;;;7.50;71.33;100918.94;4995745;28;46050;-59
2021/12/06 08:33:29;;;;;;;;;18.20;12.60;;;;;7.49;71.71;100901.72;4995985;28;45339;-61
2021/12/06 08:35:55;;;;;;;;;11.75;10.00;;;;;7.50;72.04;100908.00;4995875;28;45367;-62
2021/12/06 08:38:22;;;;;;;;;15.25;10.75;;;;;7.40;72.02;100898.22;4994677;28;45377;-63
2021/12/06 08:40:48;;;;;;;;;13.80;13.80;;;;;7.24;72.42;100871.06;4979704;28;45784;-60
2021/12/06 08:43:17;;;;;;;;;15.00;12.75;;;;;7.62;71.54;100924.81;5015484;28;45342;-59
2021/12/06 08:45:44;;;;;;;;;11.40;11.20;;;;;7.61;71.21;100918.47;5014189;28;45560;-57
2021/12/06 08:48:10;;;;;;;;;12.00;11.40;;;;;7.63;71.39;100908.19;5015986;28;45584;-62
2021/12/06 08:50:35;;;;;;;;;13.25;10.00;;;;;7.71;70.98;100923.66;4997563;28;45358;-61
2021/12/06 08:53:01;;;;;;;;;17.75;11.00;;;;;7.71;70.79;100921.78;5015261;28;45648;-63
2021/12/06 08:55:27;;;;;;;;;11.00;10.50;;;;;7.73;70.20;100914.25;5014117;28;45333;-62
2021/12/06 08:57:53;;;;;;;;;12.00;11.00;;;;;7.56;70.62;100864.41;5005391;28;45401;-60
2021/12/06 09:00:22;;;;;;;;;10.40;10.40;;;;;7.78;70.22;100907.38;4994915;28;46584;-57
2021/12/06 09:02:47;;;;;;;;;12.60;9.80;;;;;7.76;70.04;100909.44;4995364;28;45413;-54
2021/12/06 09:05:13;;;;;;;;;15.25;12.25;;;;;7.77;70.08;100911.13;4995674;28;45478;-53
2021/12/06 09:07:38;;;;;;;;;12.50;11.25;;;;;7.75;69.47;100910.47;4994258;28;45770;-58
2021/12/06 09:10:05;;;;;;;;;10.00;10.00;;;;;7.79;69.20;100909.06;4994173;28;46017;-62
2021/12/06 09:12:31;;;;;;;;;21.40;15.20;;;;;7.59;68.57;100887.78;4993948;28;45347;-63
2021/12/06 09:14:58;;;;;;;;;10.25;10.25;;;;;7.71;68.58;100919.06;4994154;28;45371;-62
2021/12/06 09:17:24;;;;;;;;;12.20;10.40;;;;;7.77;68.69;100922.06;4995849;28;45438;-62
2021/12/06 09:19:50;;;;;;;;;9.00;9.00;;;;;7.78;68.83;100921.88;4916021;28;45752;-62
2021/12/06 09:22:16;;;;;;;;;15.50;10.75;;;;;7.65;68.10;100895.22;4982159;28;45411;-62
2021/12/06 09:24:41;;;;;;;;;10.00;9.80;;;;;7.77;68.64;100905.66;4988174;28;45443;-59
2021/12/06 09:27:07;;;;;;;;;10.25;10.25;;;;;7.82;68.46;100938.72;4988995;28;45521;-60
2021/12/06 09:29:36;;;;;;;;;11.50;10.00;;;;;7.78;68.67;100931.97;4989177;28;45863;-62
2021/12/06 09:32:09;;;;;;;;;9.00;7.20;;;;;7.80;69.01;100916.22;4991137;28;45345;-62
2021/12/06 09:34:37;;;;;;;;;11.00;8.20;;;;;7.78;68.68;100901.91;4989940;28;45512;-63
2021/12/06 09:37:03;;;;;;;;;13.00;10.20;;;;;7.83;69.04;100911.22;4971134;28;45489;-63
2021/12/06 09:39:29;;;;;;;;;14.75;12.75;;;;;7.82;69.46;100922.34;4989963;28;47070;-63
2021/12/06 09:41:54;;;;;;;;;9.25;8.00;;;;;7.90;68.28;100916.75;4984725;28;45892;-65
2021/12/06 09:44:20;;;;;;;;;16.25;11.25;;;;;7.71;68.51;100878.09;4991267;28;45546;-61
2021/12/06 09:46:46;;;;;;;;;11.25;10.00;;;;;8.00;68.31;100920.06;4990087;28;45593;-57
2021/12/06 09:49:18;;;;;;;;;10.75;10.00;;;;;8.06;68.64;100923.09;4992972;28;45724;-61
2021/12/06 09:51:51;;;;;;;;;18.80;15.40;;;;;8.05;68.29;100905.00;5010653;28;45501;-63
2021/12/06 09:54:20;;;;;;;;;15.40;11.40;;;;;8.04;68.72;100903.28;5009530;28;45348;-56
2021/12/06 09:56:46;;;;;;;;;14.20;12.00;;;;;8.09;66.70;100911.75;5026108;28;45538;-62
2021/12/06 09:59:13;;;;;;;;;9.50;8.00;;;;;8.05;66.97;100911.28;4993233;28;46210;-56
2021/12/06 10:01:45;;;;;;;;;15.00;10.40;;;;;8.05;67.23;100911.28;4989769;28;45474;-59
2021/12/06 10:04:14;;;;;;;;;10.20;6.80;;;;;8.10;67.83;100914.31;4989431;28;45441;-59
2021/12/06 10:06:40;;;;;;;;;9.40;9.40;;;;;8.13;67.44;100916.63;4989423;28;45396;-61
2021/12/06 10:09:07;;;;;;;;;11.60;11.00;;;;;8.17;67.00;100919.84;4989408;28;46595;-58
2021/12/06 10:11:32;;;;;;;;;12.20;8.80;;;;;8.19;67.12;100917.78;4987894;28;45520;-63
2021/12/06 10:13:58;;;;;;;;;9.75;7.00;;;;;8.23;67.44;100908.13;4975080;28;45483;-62
2021/12/06 10:16:23;;;;;;;;;9.50;8.50;;;;;8.28;66.40;100905.66;4998222;28;45827;-65
2021/12/06 10:18:49;;;;;;;;;9.50;9.50;;;;;8.24;66.98;100898.91;4986453;28;45771;-63
2021/12/06 10:21:18;;;;;;;;;11.50;9.75;;;;;8.18;67.41;100888.75;5000169;28;45426;-56
2021/12/06 10:23:44;;;;;;;;;11.60;10.60;;;;;8.14;67.03;100890.16;5009226;28;45969;-63
2021/12/06 10:26:11;;;;;;;;;15.50;12.25;;;;;8.13;67.85;100880.25;5018984;28;45549;-54
2021/12/06 10:28:39;;;;;;;;;16.40;11.00;;;;;8.09;67.69;100879.81;4989970;28;46165;-64
2021/12/06 10:31:06;;;;;;;;;14.00;10.60;;;;;7.96;67.32;100864.06;4991517;28;45837;-66
2021/12/06 10:33:40;;;;;;;;;15.40;12.00;;;;;8.02;67.89;100878.88;5009504;28;45487;-62
2021/12/06 10:36:08;;;;;;;;;12.60;12.20;;;;;8.07;68.54;100864.63;5011861;28;45738;-61
2021/12/06 10:38:39;;;;;;;;;15.60;14.40;;;;;8.13;68.32;100850.19;5027695;28;46621;-62
2021/12/06 10:41:07;;;;;;;;;15.20;13.60;;;;;8.27;67.99;100843.81;4978587;28;46719;-61
2021/12/06 10:43:34;;;;;;;;;13.60;11.00;;;;;8.32;66.59;100854.16;5011156;28;45778;-60
2021/12/06 10:46:00;;;;;;;;;14.40;11.00;;;;;8.28;67.44;100850.97;5028502;28;45434;-57
2021/12/06 10:48:33;;;;;;;;;20.60;14.40;;;;;8.28;68.42;100841.94;5029229;28;46518;-60
2021/12/06 10:51:10;;;;;;;;;11.60;10.20;;;;;8.34;67.71;100832.09;5012626;28;45467;-57
2021/12/06 10:53:45;;;;;;;;;15.40;11.80;;;;;8.24;67.66;100792.28;5022564;28;46088;-54
2021/12/06 10:56:25;;;;;;;;;17.80;12.80;;;;;8.56;67.79;100827.50;5014696;28;45595;-59
2021/12/06 10:58:54;;;;;;;;;15.00;14.00;;;;;8.63;67.22;100825.69;5003395;28;45869;-60
2021/12/06 11:01:31;;;;;;;;;12.60;12.00;;;;;8.67;65.64;100817.91;5006041;28;46012;-52
2021/12/06 11:03:58;;;;;;;;;10.40;10.40;;;;;8.86;65.68;100810.06;5033195;28;45430;-62
2021/12/06 11:06:41;;;;;;;;;13.80;12.00;;;;;8.65;65.80;100762.56;5033057;28;45423;-63
2021/12/06 11:09:06;;;;;;;;;11.40;9.00;;;;;8.96;65.20;100810.56;5000047;28;47086;-59
2021/12/06 11:11:38;;;;;;;;;7.50;7.50;;;;;9.01;64.73;100809.97;5014420;28;45478;-61
2021/12/06 11:14:34;;;;;;;;;16.80;11.20;;;;;8.99;64.64;100807.44;5029242;28;45662;-61
2021/12/06 11:17:13;;;;;;;;;9.40;9.00;;;;;8.93;64.82;100806.31;5006679;28;46022;-62
2021/12/06 11:19:39;;;;;;;;;10.60;10.60;;;;;8.62;65.47;100766.53;4993923;28;45503;-62
2021/12/06 11:22:11;;;;;;;;;7.00;7.00;;;;;8.79;65.20;100804.53;5011295;28;45498;-63
2021/12/06 11:24:41;;;;;;;;;7.60;7.60;;;;;8.75;65.46;100809.56;5014969;28;45509;-65
2021/12/06 11:27:11;;;;;;;;;13.20;10.20;;;;;8.64;65.60;100793.69;5004413;28;45746;-64
2021/12/06 11:29:37;;;;;;;;;9.60;8.00;;;;;8.79;65.70;100807.28;5005269;28;46032;-63
2021/12/06 11:32:13;;;;;;;;;10.25;10.25;;;;;8.78;66.13;100811.06;4992046;28;45618;-63
2021/12/06 11:34:43;;;;;;;;;17.20;10.60;;;;;8.76;66.94;100802.22;4974824;28;45438;-65
2021/12/06 11:37:29;;;;;;;;;11.80;11.80;;;;;8.73;66.07;100797.13;5010167;28;45635;-62
2021/12/06 11:40:09;;;;;;;;;11.00;7.60;;;;;8.68;66.40;100797.72;5004465;28;46185;-56
2021/12/06 11:42:47;;;;;;;;;12.00;10.60;;;;;8.66;66.75;100786.13;4993013;28;45509;-62
2021/12/06 11:45:13;;;;;;;;;11.20;7.60;;;;;8.67;67.02;100779.63;5031807;28;45355;-63
2021/12/06 11:47:38;;;;;;;;;13.50;11.50;;;;;8.66;67.79;100767.81;5013825;28;45579;-57
2021/12/06 11:50:05;;;;;;;;;7.25;7.25;;;;;8.67;67.00;100766.78;5011621;28;46198;-58
2021/12/06 11:52:32;;;;;;;;;14.20;10.20;;;;;8.64;67.12;100745.28;4991588;28;45395;-62